createdAt,value
2023-03-05T00:00:05.101Z,1008.94
2023-03-05T00:00:34.203Z,1009.11
2023-03-05T00:00:52.683Z,1009.11
2023-03-05T00:01:25.182Z,1009.11
2023-03-05T00:01:56.484Z,1008.84
2023-03-05T00:02:29.408Z,1008.84
2023-03-05T00:03:00.568Z,1008.84
2023-03-05T00:03:33.276Z,1008.84
2023-03-05T00:04:04.501Z,1008.84
2023-03-05T00:04:34.902Z,1008.94
2023-03-05T00:04:52.579Z,1008.94
2023-03-05T00:05:24.707Z,1008.94
2023-03-05T00:05:42.447Z,1008.74
2023-03-05T00:06:12.502Z,1008.74
2023-03-05T00:06:34.456Z,1009.04
2023-03-05T00:07:00.524Z,1009.04
2023-03-05T00:07:32.475Z,1009.04
2023-03-05T00:08:05.339Z,1008.94
2023-03-05T00:08:34.195Z,1009.04
2023-03-05T00:08:52.493Z,1009.04
2023-03-05T00:09:24.771Z,1009.04
2023-03-05T00:09:41.922Z,1009.04
2023-03-05T00:10:13.430Z,1009.04
2023-03-05T00:10:34.210Z,1009.11
2023-03-05T00:11:00.529Z,1009.11
2023-03-05T00:11:34.196Z,1008.94
2023-03-05T00:12:04.526Z,1008.94
2023-03-05T00:12:34.698Z,1008.84
2023-03-05T00:12:52.521Z,1008.84
2023-03-05T00:13:25.427Z,1008.84
2023-03-05T00:13:57.621Z,1008.84
2023-03-05T00:14:29.350Z,1008.84
2023-03-05T00:15:00.743Z,1008.74
2023-03-05T00:15:33.315Z,1008.74
2023-03-05T00:16:04.550Z,1008.94
2023-03-05T00:16:35.102Z,1009.04
2023-03-05T00:16:52.520Z,1009.04
2023-03-05T00:17:24.556Z,1009.04
2023-03-05T00:17:42.334Z,1008.94
2023-03-05T00:18:12.511Z,1008.94
2023-03-05T00:18:34.218Z,1008.84
2023-03-05T00:19:00.526Z,1008.84
2023-03-05T00:19:32.521Z,1008.84
2023-03-05T00:20:05.425Z,1008.74
2023-03-05T00:20:34.202Z,1009.11
2023-03-05T00:20:52.651Z,1009.11
2023-03-05T00:21:24.550Z,1009.11
2023-03-05T00:21:41.616Z,1008.84
2023-03-05T00:22:13.232Z,1008.84
2023-03-05T00:22:34.200Z,1008.94
2023-03-05T00:23:00.544Z,1008.94
2023-03-05T00:23:32.717Z,1008.94
2023-03-05T00:24:04.914Z,1008.74
2023-03-05T00:24:34.225Z,1008.74
2023-03-05T00:24:52.510Z,1008.74
2023-03-05T00:25:25.291Z,1008.74
2023-03-05T00:25:56.486Z,1009.04
2023-03-05T00:26:29.299Z,1009.04
2023-03-05T00:27:00.506Z,1008.94
2023-03-05T00:27:33.308Z,1008.94
2023-03-05T00:28:04.501Z,1008.84
2023-03-05T00:28:34.979Z,1008.94
2023-03-05T00:28:52.622Z,1008.94
2023-03-05T00:29:24.541Z,1008.94
2023-03-05T00:29:42.388Z,1008.74
2023-03-05T00:30:12.743Z,1008.74
2023-03-05T00:30:34.207Z,1008.94
2023-03-05T00:31:00.590Z,1008.94
2023-03-05T00:31:32.576Z,1008.94
2023-03-05T00:32:05.200Z,1008.53
2023-03-05T00:32:34.272Z,1008.63
2023-03-05T00:32:52.552Z,1008.63
2023-03-05T00:33:24.496Z,1008.63
2023-03-05T00:33:41.630Z,1008.63
2023-03-05T00:34:13.305Z,1008.63
2023-03-05T00:34:34.193Z,1008.84
2023-03-05T00:35:00.669Z,1008.84
2023-03-05T00:35:35.069Z,1008.84
2023-03-05T00:36:04.501Z,1008.84
2023-03-05T00:36:34.205Z,1008.84
2023-03-05T00:36:52.672Z,1008.84
2023-03-05T00:37:25.177Z,1008.84
2023-03-05T00:37:56.582Z,1008.84
2023-03-05T00:38:29.263Z,1008.84
2023-03-05T00:39:00.539Z,1008.74
2023-03-05T00:39:33.337Z,1008.74
2023-03-05T00:40:04.664Z,1008.74
2023-03-05T00:40:35.368Z,1008.74
2023-03-05T00:40:52.678Z,1008.74
2023-03-05T00:41:24.529Z,1008.74
2023-03-05T00:41:42.475Z,1008.74
2023-03-05T00:42:12.544Z,1008.74
2023-03-05T00:42:34.209Z,1008.84
2023-03-05T00:43:00.521Z,1008.84
2023-03-05T00:43:32.484Z,1008.84
2023-03-05T00:44:05.403Z,1008.74
2023-03-05T00:44:34.185Z,1008.74
2023-03-05T00:44:52.507Z,1008.74
2023-03-05T00:45:24.791Z,1008.74
2023-03-05T00:45:41.665Z,1008.63
2023-03-05T00:46:13.434Z,1008.63
2023-03-05T00:46:34.363Z,1008.43
2023-03-05T00:47:00.546Z,1008.43
2023-03-05T00:47:32.527Z,1008.43
2023-03-05T00:48:04.485Z,1008.63
2023-03-05T00:48:34.224Z,1008.43
2023-03-05T00:48:52.581Z,1008.43
2023-03-05T00:49:25.182Z,1008.43
2023-03-05T00:49:56.506Z,1008.63
2023-03-05T00:50:29.375Z,1008.63
2023-03-05T00:51:00.559Z,1008.63
2023-03-05T00:51:33.304Z,1008.63
2023-03-05T00:52:04.478Z,1008.74
2023-03-05T00:52:35.125Z,1008.53
2023-03-05T00:52:52.562Z,1008.53
2023-03-05T00:53:24.524Z,1008.53
2023-03-05T00:53:42.436Z,1008.63
2023-03-05T00:54:12.539Z,1008.63
2023-03-05T00:54:34.785Z,1008.63
2023-03-05T00:55:00.666Z,1008.63
2023-03-05T00:55:32.486Z,1008.63
2023-03-05T00:56:05.342Z,1008.63
2023-03-05T00:56:34.257Z,1008.43
2023-03-05T00:56:52.561Z,1008.43
2023-03-05T00:57:24.494Z,1008.43
2023-03-05T00:57:41.611Z,1008.43
2023-03-05T00:58:13.373Z,1008.43
2023-03-05T00:58:34.223Z,1008.43
2023-03-05T00:59:00.539Z,1008.43
2023-03-05T00:59:34.190Z,1008.53
2023-03-05T01:00:04.871Z,1008.53
2023-03-05T01:00:34.237Z,1008.43
2023-03-05T01:00:52.711Z,1008.43
2023-03-05T01:01:25.440Z,1008.43
2023-03-05T01:01:42.365Z,1008.13
2023-03-05T01:02:12.548Z,1008.13
2023-03-05T01:02:34.923Z,1008.43
2023-03-05T01:03:00.504Z,1008.43
2023-03-05T01:03:33.262Z,1008.43
2023-03-05T01:04:04.534Z,1008.33
2023-03-05T01:04:34.892Z,1008.33
2023-03-05T01:04:52.637Z,1008.33
2023-03-05T01:05:24.698Z,1008.33
2023-03-05T01:05:42.437Z,1008.33
2023-03-05T01:06:12.527Z,1008.33
2023-03-05T01:06:34.195Z,1008.43
2023-03-05T01:07:00.554Z,1008.43
2023-03-05T01:07:32.456Z,1008.43
2023-03-05T01:08:05.319Z,1008.43
2023-03-05T01:08:34.387Z,1008.13
2023-03-05T01:09:09.309Z,1008.13
2023-03-05T01:09:34.164Z,1008.23
2023-03-05T01:09:56.540Z,1008.23
2023-03-05T01:10:28.649Z,1008.23
2023-03-05T01:11:00.588Z,1008.23
2023-03-05T01:11:32.497Z,1008.23
2023-03-05T01:12:04.514Z,1008.33
2023-03-05T01:12:34.196Z,1008.33
2023-03-05T01:12:52.516Z,1008.33
2023-03-05T01:13:25.150Z,1008.33
2023-03-05T01:13:56.501Z,1008.13
2023-03-05T01:14:29.321Z,1008.13
2023-03-05T01:15:00.754Z,1008.53
2023-03-05T01:15:33.292Z,1008.53
2023-03-05T01:16:04.549Z,1008.43
2023-03-05T01:16:35.006Z,1008.23
2023-03-05T01:16:52.537Z,1008.23
2023-03-05T01:17:24.506Z,1008.23
2023-03-05T01:17:42.371Z,1008.33
2023-03-05T01:18:12.534Z,1008.33
2023-03-05T01:18:34.180Z,1008.33
2023-03-05T01:19:00.508Z,1008.33
2023-03-05T01:19:32.505Z,1008.33
2023-03-05T01:20:05.419Z,1008.33
2023-03-05T01:20:34.193Z,1008.23
2023-03-05T01:20:52.657Z,1008.23
2023-03-05T01:21:24.559Z,1008.23
2023-03-05T01:21:41.597Z,1008.23
2023-03-05T01:22:13.311Z,1008.23
2023-03-05T01:22:34.769Z,1008.23
2023-03-05T01:23:00.496Z,1008.23
2023-03-05T01:23:32.485Z,1008.23
2023-03-05T01:24:04.500Z,1008.13
2023-03-05T01:24:34.162Z,1008.43
2023-03-05T01:24:52.541Z,1008.43
2023-03-05T01:25:25.403Z,1008.43
2023-03-05T01:25:42.222Z,1008.33
2023-03-05T01:26:12.488Z,1008.33
2023-03-05T01:26:34.184Z,1008.23
2023-03-05T01:27:00.507Z,1008.23
2023-03-05T01:27:34.962Z,1008.02
2023-03-05T01:28:04.500Z,1008.02
2023-03-05T01:28:34.218Z,1008.43
2023-03-05T01:28:52.493Z,1008.43
2023-03-05T01:29:24.506Z,1008.43
2023-03-05T01:29:41.699Z,1008.13
2023-03-05T01:30:12.753Z,1008.13
2023-03-05T01:30:34.186Z,1008.13
2023-03-05T01:31:01.259Z,1008.13
2023-03-05T01:31:32.550Z,1008.13
2023-03-05T01:32:05.246Z,1008.33
2023-03-05T01:32:34.857Z,1008.23
2023-03-05T01:32:52.500Z,1008.23
2023-03-05T01:33:24.512Z,1008.23
2023-03-05T01:33:41.656Z,1008.02
2023-03-05T01:34:13.343Z,1008.02
2023-03-05T01:34:34.185Z,1008.02
2023-03-05T01:35:00.602Z,1008.02
2023-03-05T01:35:32.564Z,1008.02
2023-03-05T01:36:04.493Z,1008.23
2023-03-05T01:36:34.187Z,1008.23
2023-03-05T01:36:52.529Z,1008.23
2023-03-05T01:37:25.254Z,1008.23
2023-03-05T01:37:42.248Z,1008.13
2023-03-05T01:38:12.543Z,1008.13
2023-03-05T01:38:34.192Z,1008.23
2023-03-05T01:39:00.490Z,1008.23
2023-03-05T01:39:33.211Z,1008.23
2023-03-05T01:40:04.669Z,1008.13
2023-03-05T01:40:35.393Z,1008.02
2023-03-05T01:40:52.681Z,1008.02
2023-03-05T01:41:24.512Z,1008.02
2023-03-05T01:41:42.606Z,1008.02
2023-03-05T01:42:12.473Z,1008.02
2023-03-05T01:42:34.203Z,1008.02
2023-03-05T01:43:00.544Z,1008.02
2023-03-05T01:43:32.526Z,1008.02
2023-03-05T01:44:05.383Z,1008.13
2023-03-05T01:44:34.193Z,1007.92
2023-03-05T01:44:52.531Z,1007.92
2023-03-05T01:45:24.769Z,1007.92
2023-03-05T01:45:41.599Z,1007.92
2023-03-05T01:46:13.459Z,1007.92
2023-03-05T01:46:34.623Z,1008.02
2023-03-05T01:47:00.729Z,1008.02
2023-03-05T01:47:32.498Z,1008.02
2023-03-05T01:48:04.524Z,1007.82
2023-03-05T01:48:34.167Z,1008.02
2023-03-05T01:48:52.554Z,1008.02
2023-03-05T01:49:25.305Z,1008.02
2023-03-05T01:49:42.246Z,1007.62
2023-03-05T01:50:12.629Z,1007.62
2023-03-05T01:50:34.166Z,1007.92
2023-03-05T01:51:00.557Z,1007.92
2023-03-05T01:51:33.245Z,1007.92
2023-03-05T01:52:04.465Z,1008.13
2023-03-05T01:52:34.977Z,1007.82
2023-03-05T01:52:52.520Z,1007.82
2023-03-05T01:53:24.515Z,1007.82
2023-03-05T01:53:42.328Z,1008.02
2023-03-05T01:54:12.528Z,1008.02
2023-03-05T01:54:34.142Z,1007.82
2023-03-05T01:55:00.616Z,1007.82
2023-03-05T01:55:32.507Z,1007.82
2023-03-05T01:56:05.290Z,1007.92
2023-03-05T01:56:34.166Z,1007.82
2023-03-05T01:57:09.312Z,1007.82
2023-03-05T01:57:34.182Z,1007.82
2023-03-05T01:57:56.521Z,1007.82
2023-03-05T01:58:28.520Z,1007.82
2023-03-05T01:59:00.518Z,1007.92
2023-03-05T01:59:32.502Z,1007.92
2023-03-05T02:00:04.843Z,1007.92
2023-03-05T02:00:34.162Z,1007.82
2023-03-05T02:01:08.649Z,1007.82
2023-03-05T02:01:34.252Z,1007.72
2023-03-05T02:01:56.538Z,1007.72
2023-03-05T02:02:29.333Z,1007.72
2023-03-05T02:03:00.486Z,1007.72
2023-03-05T02:03:33.292Z,1007.72
2023-03-05T02:04:04.478Z,1007.62
2023-03-05T02:04:35.100Z,1007.72
2023-03-05T02:04:52.529Z,1007.72
2023-03-05T02:05:24.670Z,1007.72
2023-03-05T02:05:42.465Z,1007.82
2023-03-05T02:06:12.533Z,1007.82
2023-03-05T02:06:35.201Z,1007.62
2023-03-05T02:07:00.477Z,1007.62
2023-03-05T02:07:32.555Z,1007.62
2023-03-05T02:08:05.312Z,1007.62
2023-03-05T02:08:34.182Z,1007.72
2023-03-05T02:08:52.493Z,1007.72
2023-03-05T02:09:24.499Z,1007.72
2023-03-05T02:09:41.650Z,1007.82
2023-03-05T02:10:13.435Z,1007.82
2023-03-05T02:10:34.169Z,1007.62
2023-03-05T02:11:00.508Z,1007.62
2023-03-05T02:11:32.474Z,1007.62
2023-03-05T02:12:04.484Z,1007.72
2023-03-05T02:12:34.854Z,1007.52
2023-03-05T02:12:52.560Z,1007.52
2023-03-05T02:13:24.529Z,1007.52
2023-03-05T02:13:42.411Z,1007.62
2023-03-05T02:14:12.531Z,1007.62
2023-03-05T02:14:34.178Z,1007.52
2023-03-05T02:15:00.736Z,1007.52
2023-03-05T02:15:32.466Z,1007.52
2023-03-05T02:16:05.466Z,1007.62
2023-03-05T02:16:34.829Z,1007.72
2023-03-05T02:16:52.588Z,1007.72
2023-03-05T02:17:24.510Z,1007.72
2023-03-05T02:17:41.607Z,1007.52
2023-03-05T02:18:13.354Z,1007.52
2023-03-05T02:18:34.183Z,1007.62
2023-03-05T02:19:00.517Z,1007.62
2023-03-05T02:19:32.477Z,1007.62
2023-03-05T02:20:05.454Z,1007.42
2023-03-05T02:20:34.179Z,1007.52
2023-03-05T02:20:52.636Z,1007.52
2023-03-05T02:21:25.340Z,1007.52
2023-03-05T02:21:42.341Z,1007.52
2023-03-05T02:22:12.564Z,1007.52
2023-03-05T02:22:34.200Z,1007.42
2023-03-05T02:23:00.513Z,1007.42
2023-03-05T02:23:33.253Z,1007.42
2023-03-05T02:24:04.519Z,1007.31
2023-03-05T02:24:35.089Z,1007.52
2023-03-05T02:24:52.574Z,1007.52
2023-03-05T02:25:24.640Z,1007.52
2023-03-05T02:25:42.447Z,1007.31
2023-03-05T02:26:12.515Z,1007.31
2023-03-05T02:26:34.169Z,1007.21
2023-03-05T02:27:00.484Z,1007.21
2023-03-05T02:27:32.530Z,1007.21
2023-03-05T02:28:05.218Z,1007.42
2023-03-05T02:28:34.188Z,1007.31
2023-03-05T02:28:52.547Z,1007.31
2023-03-05T02:29:24.575Z,1007.31
2023-03-05T02:29:41.614Z,1007.52
2023-03-05T02:30:13.544Z,1007.52
2023-03-05T02:30:34.206Z,1007.31
2023-03-05T02:31:00.526Z,1007.31
2023-03-05T02:31:32.551Z,1007.31
2023-03-05T02:32:04.619Z,1007.42
2023-03-05T02:32:34.212Z,1007.52
2023-03-05T02:32:52.506Z,1007.52
2023-03-05T02:33:25.206Z,1007.52
2023-03-05T02:33:56.483Z,1007.31
2023-03-05T02:34:29.324Z,1007.31
2023-03-05T02:35:00.660Z,1007.31
2023-03-05T02:35:33.427Z,1007.31
2023-03-05T02:36:04.513Z,1007.42
2023-03-05T02:36:34.977Z,1007.21
2023-03-05T02:36:52.541Z,1007.21
2023-03-05T02:37:24.555Z,1007.21
2023-03-05T02:37:42.468Z,1007.21
2023-03-05T02:38:12.548Z,1007.21
2023-03-05T02:38:34.177Z,1007.21
2023-03-05T02:39:00.504Z,1007.21
2023-03-05T02:39:32.529Z,1007.21
2023-03-05T02:40:05.550Z,1007.42
2023-03-05T02:40:34.178Z,1007.31
2023-03-05T02:40:52.677Z,1007.31
2023-03-05T02:41:24.581Z,1007.31
2023-03-05T02:41:41.753Z,1007.31
2023-03-05T02:42:13.286Z,1007.31
2023-03-05T02:42:34.182Z,1007.42
2023-03-05T02:43:00.626Z,1007.42
2023-03-05T02:43:33.349Z,1007.42
2023-03-05T02:44:04.547Z,1007.31
2023-03-05T02:44:34.882Z,1007.31
2023-03-05T02:44:52.606Z,1007.31
2023-03-05T02:45:24.701Z,1007.31
2023-03-05T02:45:42.506Z,1007.11
2023-03-05T02:46:12.666Z,1007.11
2023-03-05T02:46:34.203Z,1007.11
2023-03-05T02:47:00.588Z,1007.11
2023-03-05T02:47:32.449Z,1007.11
2023-03-05T02:48:05.413Z,1007.42
2023-03-05T02:48:34.182Z,1007.11
2023-03-05T02:48:52.576Z,1007.11
2023-03-05T02:49:24.535Z,1007.11
2023-03-05T02:49:41.608Z,1007.31
2023-03-05T02:50:13.528Z,1007.31
2023-03-05T02:50:34.181Z,1007.31
2023-03-05T02:51:00.485Z,1007.31
2023-03-05T02:51:32.495Z,1007.31
2023-03-05T02:52:04.526Z,1007.31
2023-03-05T02:52:34.190Z,1007.31
2023-03-05T02:52:52.543Z,1007.31
2023-03-05T02:53:25.293Z,1007.31
2023-03-05T02:53:42.280Z,1007.01
2023-03-05T02:54:12.588Z,1007.01
2023-03-05T02:54:34.623Z,1007.01
2023-03-05T02:55:00.693Z,1007.01
2023-03-05T02:55:33.310Z,1007.01
2023-03-05T02:56:04.507Z,1007.21
2023-03-05T02:56:35.496Z,1007.31
2023-03-05T02:57:08.533Z,1007.31
2023-03-05T02:57:34.200Z,1007.21
2023-03-05T02:57:57.272Z,1007.21
2023-03-05T02:58:28.490Z,1007.21
2023-03-05T02:59:02.252Z,1007.11
2023-03-05T02:59:32.554Z,1007.11
2023-03-05T03:00:05.698Z,1007.21
2023-03-05T03:00:34.184Z,1007.31
2023-03-05T03:00:53.012Z,1007.31
2023-03-05T03:01:24.702Z,1007.31
2023-03-05T03:01:41.671Z,1007.31
2023-03-05T03:02:13.329Z,1007.31
2023-03-05T03:02:34.398Z,1007.01
2023-03-05T03:03:00.617Z,1007.01
2023-03-05T03:03:32.598Z,1007.01
2023-03-05T03:04:04.538Z,1007.21
2023-03-05T03:04:34.192Z,1007.31
2023-03-05T03:04:52.533Z,1007.31
2023-03-05T03:05:25.454Z,1007.31
2023-03-05T03:05:42.246Z,1007.01
2023-03-05T03:06:12.584Z,1007.01
2023-03-05T03:06:34.186Z,1007.31
2023-03-05T03:07:00.495Z,1007.31
2023-03-05T03:07:33.324Z,1007.31
2023-03-05T03:08:04.510Z,1007.01
2023-03-05T03:08:35.189Z,1007.01
2023-03-05T03:08:52.537Z,1007.01
2023-03-05T03:09:24.606Z,1007.01
2023-03-05T03:09:42.409Z,1007.11
2023-03-05T03:10:12.759Z,1007.11
2023-03-05T03:10:34.204Z,1007.11
2023-03-05T03:11:00.501Z,1007.11
2023-03-05T03:11:32.617Z,1007.11
2023-03-05T03:12:05.228Z,1007.11
2023-03-05T03:12:34.190Z,1007.21
2023-03-05T03:12:52.549Z,1007.21
2023-03-05T03:13:24.574Z,1007.21
2023-03-05T03:13:41.688Z,1007.11
2023-03-05T03:14:13.234Z,1007.11
2023-03-05T03:14:34.170Z,1007.11
2023-03-05T03:15:17.491Z,1007.11
2023-03-05T03:15:48.566Z,1007.11
2023-03-05T03:16:35.006Z,1007.11
2023-03-05T03:16:52.648Z,1007.11
2023-03-05T03:17:24.544Z,1007.11
2023-03-05T03:17:42.355Z,1007.11
2023-03-05T03:18:12.545Z,1007.11
2023-03-05T03:18:34.207Z,1007.11
2023-03-05T03:19:00.549Z,1007.11
2023-03-05T03:19:32.540Z,1007.11
2023-03-05T03:20:05.528Z,1006.84
2023-03-05T03:20:34.184Z,1006.94
2023-03-05T03:20:52.733Z,1006.94
2023-03-05T03:21:24.611Z,1006.94
2023-03-05T03:21:41.641Z,1007.01
2023-03-05T03:22:13.258Z,1007.01
2023-03-05T03:22:34.208Z,1006.84
2023-03-05T03:23:00.541Z,1006.84
2023-03-05T03:23:32.547Z,1006.84
2023-03-05T03:24:04.507Z,1007.01
2023-03-05T03:24:34.370Z,1007.01
2023-03-05T03:24:52.599Z,1007.01
2023-03-05T03:25:25.477Z,1007.01
2023-03-05T03:25:42.293Z,1007.01
2023-03-05T03:26:12.540Z,1007.01
2023-03-05T03:26:34.182Z,1007.21
2023-03-05T03:27:00.565Z,1007.21
2023-03-05T03:27:33.350Z,1007.21
2023-03-05T03:28:04.514Z,1007.01
2023-03-05T03:28:35.226Z,1006.94
2023-03-05T03:28:52.578Z,1006.94
2023-03-05T03:29:24.704Z,1006.94
2023-03-05T03:29:42.694Z,1007.01
2023-03-05T03:30:12.757Z,1007.01
2023-03-05T03:30:34.208Z,1006.94
2023-03-05T03:31:00.536Z,1006.94
2023-03-05T03:31:32.548Z,1006.94
2023-03-05T03:32:05.341Z,1006.94
2023-03-05T03:32:34.253Z,1006.84
2023-03-05T03:32:52.640Z,1006.84
2023-03-05T03:33:24.554Z,1006.84
2023-03-05T03:33:56.557Z,1006.84
2023-03-05T03:34:28.522Z,1006.84
2023-03-05T03:35:00.636Z,1006.94
2023-03-05T03:35:32.572Z,1006.94
2023-03-05T03:36:04.533Z,1006.94
2023-03-05T03:36:34.709Z,1006.84
2023-03-05T03:36:52.610Z,1006.84
2023-03-05T03:37:25.332Z,1006.84
2023-03-05T03:37:42.287Z,1006.84
2023-03-05T03:38:12.553Z,1006.84
2023-03-05T03:38:34.208Z,1006.84
2023-03-05T03:39:00.532Z,1006.84
2023-03-05T03:39:33.340Z,1006.84
2023-03-05T03:40:04.710Z,1006.94
2023-03-05T03:40:35.022Z,1006.74
2023-03-05T03:40:52.683Z,1006.74
2023-03-05T03:41:24.575Z,1006.74
2023-03-05T03:41:42.548Z,1006.94
2023-03-05T03:42:12.552Z,1006.94
2023-03-05T03:42:34.202Z,1006.84
2023-03-05T03:43:00.554Z,1006.84
2023-03-05T03:43:32.581Z,1006.84
2023-03-05T03:44:05.305Z,1006.94
2023-03-05T03:44:34.184Z,1006.74
2023-03-05T03:44:52.588Z,1006.74
2023-03-05T03:45:24.796Z,1006.74
2023-03-05T03:45:41.660Z,1006.74
2023-03-05T03:46:13.447Z,1006.74
2023-03-05T03:46:34.316Z,1006.74
2023-03-05T03:47:00.506Z,1006.74
2023-03-05T03:47:32.580Z,1006.74
2023-03-05T03:48:04.511Z,1006.84
2023-03-05T03:48:34.203Z,1006.74
2023-03-05T03:48:52.701Z,1006.74
2023-03-05T03:49:25.334Z,1006.74
2023-03-05T03:49:42.288Z,1006.74
2023-03-05T03:50:12.697Z,1006.74
2023-03-05T03:50:34.388Z,1006.64
2023-03-05T03:51:00.606Z,1006.64
2023-03-05T03:51:33.375Z,1006.64
2023-03-05T03:52:04.584Z,1006.64
2023-03-05T03:52:35.130Z,1006.74
2023-03-05T03:52:52.597Z,1006.74
2023-03-05T03:53:24.577Z,1006.74
2023-03-05T03:53:42.483Z,1006.84
2023-03-05T03:54:12.581Z,1006.84
2023-03-05T03:54:34.222Z,1006.64
2023-03-05T03:55:00.644Z,1006.64
2023-03-05T03:55:32.567Z,1006.64
2023-03-05T03:56:05.381Z,1006.43
2023-03-05T03:56:34.234Z,1006.84
2023-03-05T03:56:52.606Z,1006.84
2023-03-05T03:57:24.623Z,1006.84
2023-03-05T03:57:41.706Z,1006.64
2023-03-05T03:58:13.365Z,1006.64
2023-03-05T03:58:34.210Z,1006.64
2023-03-05T03:59:00.536Z,1006.64
2023-03-05T03:59:32.567Z,1006.64
2023-03-05T04:00:04.814Z,1006.64
2023-03-05T04:00:34.212Z,1006.64
2023-03-05T04:00:52.738Z,1006.64
2023-03-05T04:01:25.223Z,1006.64
2023-03-05T04:01:56.542Z,1006.74
2023-03-05T04:02:29.414Z,1006.74
2023-03-05T04:03:00.542Z,1006.84
2023-03-05T04:03:33.330Z,1006.84
2023-03-05T04:04:04.598Z,1006.43
2023-03-05T04:04:35.618Z,1006.53
2023-03-05T04:05:08.700Z,1006.53
2023-03-05T04:05:34.399Z,1006.64
2023-03-05T04:05:56.735Z,1006.64
2023-03-05T04:06:28.562Z,1006.64
2023-03-05T04:07:01.458Z,1006.84
2023-03-05T04:07:32.603Z,1006.84
2023-03-05T04:08:05.387Z,1006.53
2023-03-05T04:08:34.221Z,1006.64
2023-03-05T04:08:52.578Z,1006.64
2023-03-05T04:09:24.568Z,1006.64
2023-03-05T04:09:41.698Z,1006.53
2023-03-05T04:10:13.491Z,1006.53
2023-03-05T04:10:34.207Z,1006.53
2023-03-05T04:11:00.512Z,1006.53
2023-03-05T04:11:32.581Z,1006.53
2023-03-05T04:12:04.523Z,1006.43
2023-03-05T04:12:34.239Z,1006.53
2023-03-05T04:12:52.556Z,1006.53
2023-03-05T04:13:25.327Z,1006.53
2023-03-05T04:13:56.572Z,1006.64
2023-03-05T04:14:29.276Z,1006.64
2023-03-05T04:15:00.753Z,1006.53
2023-03-05T04:15:33.354Z,1006.53
2023-03-05T04:16:04.597Z,1006.53
2023-03-05T04:16:35.023Z,1006.64
2023-03-05T04:16:52.560Z,1006.64
2023-03-05T04:17:24.637Z,1006.64
2023-03-05T04:17:42.478Z,1006.43
2023-03-05T04:18:12.559Z,1006.43
2023-03-05T04:18:34.236Z,1006.74
2023-03-05T04:19:00.569Z,1006.74
2023-03-05T04:19:32.630Z,1006.74
2023-03-05T04:20:06.483Z,1006.53
2023-03-05T04:20:34.227Z,1006.43
2023-03-05T04:20:52.764Z,1006.43
2023-03-05T04:21:24.624Z,1006.43
2023-03-05T04:21:41.686Z,1006.53
2023-03-05T04:22:13.345Z,1006.53
2023-03-05T04:22:34.265Z,1006.43
2023-03-05T04:23:00.591Z,1006.43
2023-03-05T04:23:32.558Z,1006.43
2023-03-05T04:24:04.559Z,1006.84
2023-03-05T04:24:34.186Z,1006.23
2023-03-05T04:24:52.641Z,1006.23
2023-03-05T04:25:25.465Z,1006.23
2023-03-05T04:25:42.260Z,1006.23
2023-03-05T04:26:12.653Z,1006.23
2023-03-05T04:26:34.391Z,1006.43
2023-03-05T04:27:00.548Z,1006.43
2023-03-05T04:27:33.359Z,1006.43
2023-03-05T04:28:04.568Z,1006.43
2023-03-05T04:28:35.360Z,1006.33
2023-03-05T04:28:52.647Z,1006.33
2023-03-05T04:29:24.632Z,1006.33
2023-03-05T04:29:57.341Z,1006.33
2023-03-05T04:30:28.815Z,1006.33
2023-03-05T04:31:01.431Z,1006.43
2023-03-05T04:31:32.665Z,1006.43
2023-03-05T04:32:05.456Z,1006.43
2023-03-05T04:32:34.769Z,1006.43
2023-03-05T04:32:52.572Z,1006.43
2023-03-05T04:33:24.670Z,1006.43
2023-03-05T04:33:41.707Z,1006.33
2023-03-05T04:34:13.265Z,1006.33
2023-03-05T04:34:34.220Z,1006.13
2023-03-05T04:35:00.665Z,1006.13
2023-03-05T04:35:32.635Z,1006.13
2023-03-05T04:36:04.544Z,1006.33
2023-03-05T04:36:34.709Z,1006.33
2023-03-05T04:36:52.658Z,1006.33
2023-03-05T04:37:25.252Z,1006.33
2023-03-05T04:37:56.526Z,1006.23
2023-03-05T04:38:29.513Z,1006.23
2023-03-05T04:39:00.594Z,1006.33
2023-03-05T04:39:33.268Z,1006.33
2023-03-05T04:40:04.719Z,1006.43
2023-03-05T04:40:35.205Z,1006.23
2023-03-05T04:40:52.731Z,1006.23
2023-03-05T04:41:24.574Z,1006.23
2023-03-05T04:41:42.505Z,1006.13
2023-03-05T04:42:12.605Z,1006.13
2023-03-05T04:42:34.229Z,1006.33
2023-03-05T04:43:00.536Z,1006.33
2023-03-05T04:43:32.583Z,1006.33
2023-03-05T04:44:05.356Z,1006.23
2023-03-05T04:44:34.231Z,1006.03
2023-03-05T04:44:52.598Z,1006.03
2023-03-05T04:45:24.914Z,1006.03
2023-03-05T04:45:41.709Z,1006.13
2023-03-05T04:46:13.308Z,1006.13
2023-03-05T04:46:34.305Z,1006.23
2023-03-05T04:47:00.545Z,1006.23
2023-03-05T04:47:32.653Z,1006.23
2023-03-05T04:48:04.569Z,1006.23
2023-03-05T04:48:34.290Z,1006.23
2023-03-05T04:48:52.605Z,1006.23
2023-03-05T04:49:25.294Z,1006.23
2023-03-05T04:49:57.051Z,1006.23
2023-03-05T04:50:29.515Z,1006.23
2023-03-05T04:51:00.527Z,1006.13
2023-03-05T04:51:33.335Z,1006.13
2023-03-05T04:52:04.557Z,1006.33
2023-03-05T04:52:35.048Z,1006.13
2023-03-05T04:52:52.622Z,1006.13
2023-03-05T04:53:24.617Z,1006.13
2023-03-05T04:53:42.415Z,1006.13
2023-03-05T04:54:12.590Z,1006.13
2023-03-05T04:54:34.206Z,1006.13
2023-03-05T04:55:00.735Z,1006.13
2023-03-05T04:55:32.601Z,1006.13
2023-03-05T04:56:05.439Z,1005.93
2023-03-05T04:56:34.180Z,1006.13
2023-03-05T04:56:52.600Z,1006.13
2023-03-05T04:57:24.590Z,1006.13
2023-03-05T04:57:41.768Z,1006.03
2023-03-05T04:58:13.483Z,1006.03
2023-03-05T04:58:34.240Z,1006.03
2023-03-05T04:59:00.568Z,1006.03
2023-03-05T04:59:32.574Z,1006.03
2023-03-05T05:00:04.910Z,1006.03
2023-03-05T05:00:34.232Z,1006.23
2023-03-05T05:00:52.752Z,1006.23
2023-03-05T05:01:25.442Z,1006.23
2023-03-05T05:01:42.410Z,1005.82
2023-03-05T05:02:12.624Z,1005.82
2023-03-05T05:02:34.251Z,1005.93
2023-03-05T05:03:00.618Z,1005.93
2023-03-05T05:03:34.203Z,1005.93
2023-03-05T05:04:04.567Z,1006.13
2023-03-05T05:04:35.035Z,1005.93
2023-03-05T05:04:52.581Z,1005.93
2023-03-05T05:05:24.811Z,1005.93
2023-03-05T05:05:42.428Z,1005.82
2023-03-05T05:06:12.621Z,1005.82
2023-03-05T05:06:34.233Z,1006.03
2023-03-05T05:07:00.813Z,1006.03
2023-03-05T05:07:32.554Z,1006.03
2023-03-05T05:08:05.369Z,1005.93
2023-03-05T05:08:34.188Z,1006.13
2023-03-05T05:08:52.598Z,1006.13
2023-03-05T05:09:24.649Z,1006.13
2023-03-05T05:09:41.728Z,1006.03
2023-03-05T05:10:13.782Z,1006.03
2023-03-05T05:10:34.195Z,1005.93
2023-03-05T05:11:00.573Z,1005.93
2023-03-05T05:11:32.579Z,1005.93
2023-03-05T05:12:04.568Z,1005.93
2023-03-05T05:12:34.205Z,1005.93
2023-03-05T05:12:52.632Z,1005.93
2023-03-05T05:13:25.374Z,1005.93
2023-03-05T05:13:42.284Z,1005.82
2023-03-05T05:14:12.597Z,1005.82
2023-03-05T05:14:34.218Z,1005.93
2023-03-05T05:15:00.778Z,1005.93
2023-03-05T05:15:33.393Z,1005.93
2023-03-05T05:16:04.592Z,1006.03
2023-03-05T05:16:35.230Z,1006.13
2023-03-05T05:16:52.602Z,1006.13
2023-03-05T05:17:24.660Z,1006.13
2023-03-05T05:17:42.595Z,1006.03
2023-03-05T05:18:12.582Z,1006.03
2023-03-05T05:18:34.215Z,1005.93
2023-03-05T05:19:00.621Z,1005.93
2023-03-05T05:19:32.662Z,1005.93
2023-03-05T05:20:05.542Z,1006.03
2023-03-05T05:20:34.209Z,1006.03
2023-03-05T05:20:52.762Z,1006.03
2023-03-05T05:21:24.651Z,1006.03
2023-03-05T05:21:41.740Z,1006.03
2023-03-05T05:22:13.236Z,1006.03
2023-03-05T05:22:34.711Z,1005.82
2023-03-05T05:23:00.570Z,1005.82
2023-03-05T05:23:32.645Z,1005.82
2023-03-05T05:24:04.556Z,1005.82
2023-03-05T05:24:34.238Z,1005.93
2023-03-05T05:24:52.648Z,1005.93
2023-03-05T05:25:25.511Z,1005.93
2023-03-05T05:25:42.262Z,1006.13
2023-03-05T05:26:12.572Z,1006.13
2023-03-05T05:26:34.238Z,1006.13
2023-03-05T05:27:00.605Z,1006.13
2023-03-05T05:27:33.377Z,1006.13
2023-03-05T05:28:20.590Z,1006.23
2023-03-05T05:28:38.394Z,1006.03
2023-03-05T05:29:08.612Z,1006.03
2023-03-05T05:29:34.194Z,1005.93
2023-03-05T05:29:56.538Z,1005.93
2023-03-05T05:30:28.811Z,1005.93
2023-03-05T05:31:01.392Z,1005.72